Time;durP1;ratioP1;P1;durP2;ratioP2;P2;SDS_P1;SDS_P2;PMS_P1;PMS_P2;Temp;Humidity;BMP_temperature;BMP_pressure;BME280_temperature;BME280_humidity;BME280_pressure;Samples;Min_cycle;Max_cycle;Signal;HPM_P1;HPM_P2
2021/05/15 00:04:54;;;;;;;6.07;3.45;;;;;;;9.41;100.00;99721.94;20580315;28;20527;-79
2021/05/15 00:14:55;;;;;;;5.75;3.30;;;;;;;9.25;100.00;99710.72;20630643;28;20070;-80
2021/05/15 00:24:56;;;;;;;5.80;3.50;;;;;;;9.06;100.00;99710.13;20585534;28;20089;-79
2021/05/15 00:34:57;;;;;;;7.03;3.67;;;;;;;8.97;100.00;99726.34;20576336;28;20031;-79
2021/05/15 00:44:57;;;;;;;5.78;3.10;;;;;;;8.91;100.00;99708.44;20606000;28;20181;-79
2021/05/15 00:54:58;;;;;;;5.13;2.47;;;;;;;8.94;100.00;99705.63;20646642;28;20064;-79
2021/05/15 01:04:59;;;;;;;5.32;2.42;;;;;;;8.91;100.00;99711.03;20640509;28;20527;-80
2021/05/15 01:15:05;;;;;;;5.90;2.05;;;;;;;8.91;100.00;99705.81;20637560;28;20043;-80
2021/05/15 01:25:06;;;;;;;5.00;2.47;;;;;;;9.11;100.00;99710.72;20582508;28;20105;-80
2021/05/15 01:35:08;;;;;;;3.67;1.65;;;;;;;8.99;100.00;99698.38;20587688;28;20041;-79
2021/05/15 01:45:09;;;;;;;3.40;1.40;;;;;;;9.01;100.00;99692.13;20616194;28;20068;-80
2021/05/15 01:55:21;;;;;;;2.78;1.10;;;;;;;9.20;100.00;99683.19;20583441;28;20037;-80
2021/05/15 02:05:22;;;;;;;5.57;1.35;;;;;;;9.20;100.00;99678.81;20608196;28;20561;-80
2021/05/15 02:15:23;;;;;;;6.30;1.30;;;;;;;9.19;100.00;99668.50;20639662;28;20039;-79
2021/05/15 02:25:49;;;;;;;;;;;;;;;9.04;100.00;99664.19;20516097;28;20439;-80
2021/05/15 02:35:50;;;;;;;3.08;1.40;;;;;;;9.03;100.00;99655.53;20527455;28;20285;-80
2021/05/15 02:45:52;;;;;;;4.03;1.45;;;;;;;9.11;100.00;99655.03;20610509;28;20140;-80
2021/05/15 02:55:52;;;;;;;2.53;1.10;;;;;;;9.12;100.00;99649.75;20684900;28;20492;-80
2021/05/15 03:05:53;;;;;;;3.90;1.30;;;;;;;9.15;100.00;99640.88;20685646;28;20050;-79
2021/05/15 03:15:54;;;;;;;3.33;1.40;;;;;;;9.19;100.00;99637.16;20645499;28;20042;-80
2021/05/15 03:25:56;;;;;;;5.32;1.60;;;;;;;9.17;100.00;99632.03;20606734;28;20141;-80
2021/05/15 03:35:57;;;;;;;3.70;1.40;;;;;;;9.13;100.00;99642.75;20590015;28;20049;-79
2021/05/15 03:45:58;;;;;;;5.68;1.70;;;;;;;9.09;100.00;99634.28;20637822;28;20046;-79
2021/05/15 03:55:59;;;;;;;3.75;1.60;;;;;;;9.09;100.00;99642.09;20666292;28;20122;-79
2021/05/15 04:06:01;;;;;;;4.22;1.80;;;;;;;9.00;100.00;99638.25;20686883;28;20046;-79
2021/05/15 04:16:08;;;;;;;4.20;1.67;;;;;;;9.04;100.00;99638.09;20661442;28;20062;-80
2021/05/15 04:26:13;;;;;;;4.65;1.67;;;;;;;9.19;100.00;99638.00;20633775;28;20439;-79
2021/05/15 04:36:13;;;;;;;3.95;2.05;;;;;;;9.28;100.00;99649.66;20595563;28;20130;-79
2021/05/15 04:46:14;;;;;;;5.15;2.20;;;;;;;9.43;100.00;99638.28;20622935;28;20038;-80
2021/05/15 04:56:15;;;;;;;5.97;2.33;;;;;;;9.72;100.00;99636.44;20689588;28;20100;-79
2021/05/15 05:06:16;;;;;;;5.95;2.30;;;;;;;9.71;100.00;99639.97;20673623;28;20046;-80
2021/05/15 05:16:17;;;;;;;5.78;2.50;;;;;;;9.78;100.00;99641.28;20657747;28;20073;-80
2021/05/15 05:26:18;;;;;;;4.72;2.33;;;;;;;9.74;100.00;99634.59;20704817;28;20547;-80
2021/05/15 05:36:19;;;;;;;5.32;2.30;;;;;;;9.74;100.00;99639.81;20693825;28;20054;-80
2021/05/15 05:46:20;;;;;;;4.95;2.45;;;;;;;9.60;100.00;99640.66;20656549;28;20034;-81
2021/05/15 05:56:21;;;;;;;10.38;2.50;;;;;;;9.72;100.00;99644.28;20690058;28;20046;-80
2021/05/15 06:06:22;;;;;;;5.72;3.00;;;;;;;9.96;100.00;99634.88;20684039;28;20093;-84
2021/05/15 06:16:23;;;;;;;4.90;2.13;;;;;;;10.07;100.00;99627.19;20626978;28;20039;-84
2021/05/15 06:26:24;;;;;;;4.00;1.95;;;;;;;10.47;100.00;99622.84;20587697;28;20073;-80
2021/05/15 06:36:25;;;;;;;6.30;2.10;;;;;;;10.48;100.00;99627.16;20569380;28;20121;-82
2021/05/15 06:46:26;;;;;;;5.15;2.40;;;;;;;10.14;100.00;99622.41;20613899;28;20333;-83
2021/05/15 06:56:26;;;;;;;5.03;2.13;;;;;;;10.78;100.00;99623.41;20559963;28;20527;-82
2021/05/15 07:06:27;;;;;;;7.18;2.20;;;;;;;10.84;100.00;99621.22;20568476;28;20093;-83
2021/05/15 07:16:28;;;;;;;4.03;2.00;;;;;;;11.72;100.00;99622.09;20574213;28;20563;-82
2021/05/15 07:26:28;;;;;;;4.32;1.90;;;;;;;12.27;96.27;99609.28;20552262;28;20489;-83
2021/05/15 07:36:29;;;;;;;4.07;1.67;;;;;;;12.43;93.55;99601.13;20559576;28;20097;-83
2021/05/15 07:46:29;;;;;;;3.78;1.65;;;;;;;12.68;92.25;99602.75;20569765;28;20074;-82
2021/05/15 07:56:36;;;;;;;3.95;1.85;;;;;;;12.65;93.05;99582.78;20542660;28;20047;-82
2021/05/15 08:06:37;;;;;;;3.00;1.55;;;;;;;12.95;91.27;99589.31;20560630;28;20038;-80
2021/05/15 08:16:38;;;;;;;3.47;1.50;;;;;;;13.68;85.46;99574.72;20584110;28;20193;-81
2021/05/15 08:26:40;;;;;;;3.22;1.50;;;;;;;13.74;81.43;99556.75;20589660;28;20130;-82
2021/05/15 08:36:41;;;;;;;4.07;1.15;;;;;;;14.12;79.16;99557.09;20559676;28;20506;-82
2021/05/15 08:46:44;;;;;;;2.45;0.93;;;;;;;14.05;77.67;99561.22;20561154;28;20034;-81
2021/05/15 08:56:45;;;;;;;3.47;1.38;;;;;;;14.68;75.66;99543.69;20562306;28;20055;-82
2021/05/15 09:06:45;;;;;;;1.93;0.80;;;;;;;14.78;70.66;99523.50;20532590;28;20122;-83
2021/05/15 09:16:52;;;;;;;8.25;1.17;;;;;;;14.88;70.19;99525.19;20558783;28;20047;-83
2021/05/15 09:26:59;;;;;;;3.65;1.02;;;;;;;15.39;66.59;99518.97;20582984;28;20053;-82
2021/05/15 09:37:02;;;;;;;2.63;0.87;;;;;;;16.13;65.07;99512.28;20561860;28;20066;-83
2021/05/15 09:47:05;;;;;;;3.55;1.00;;;;;;;15.77;61.32;99498.00;20587779;28;20098;-83
2021/05/15 09:57:15;;;;;;;5.30;1.00;;;;;;;15.65;56.51;99493.81;20568697;28;20050;-84
2021/05/15 10:07:18;;;;;;;1.92;0.70;;;;;;;16.54;59.75;99479.44;20578911;28;20039;-84
2021/05/15 10:17:20;;;;;;;3.30;0.85;;;;;;;16.57;55.45;99467.72;20619339;28;20047;-85
2021/05/15 10:27:22;;;;;;;3.92;1.00;;;;;;;16.88;54.53;99455.94;20583419;28;20047;-86
2021/05/15 10:37:24;;;;;;;5.75;1.75;;;;;;;16.80;55.75;99437.34;20579074;28;20039;-82
2021/05/15 10:47:27;;;;;;;2.17;0.70;;;;;;;16.66;54.58;99416.66;20577732;28;20046;-83
2021/05/15 10:57:31;;;;;;;6.93;1.60;;;;;;;16.46;52.84;99412.41;20577535;28;20054;-80
2021/05/15 11:07:35;;;;;;;7.80;3.47;;;;;;;16.33;52.70;99411.91;20597620;28;20043;-80
2021/05/15 11:17:38;;;;;;;8.40;5.97;;;;;;;15.97;54.34;99409.06;20582429;28;20124;-81
2021/05/15 11:27:50;;;;;;;7.13;1.00;;;;;;;15.89;55.32;99408.97;20577737;28;20053;-81
2021/05/15 11:38:12;;;;;;;4.20;1.30;;;;;;;15.72;55.65;99393.84;20569472;28;20043;-82
2021/05/15 11:48:21;;;;;;;3.83;0.90;;;;;;;15.93;55.46;99369.91;20619793;28;20057;-81
2021/05/15 11:58:23;;;;;;;3.00;0.90;;;;;;;16.75;51.62;99352.41;20577354;28;20047;-81
2021/05/15 12:08:25;;;;;;;4.40;0.93;;;;;;;15.92;53.96;99324.22;20609739;28;20046;-80
2021/05/15 12:18:26;;;;;;;9.13;1.42;;;;;;;16.40;54.52;99331.13;20577647;28;20493;-79
2021/05/15 12:28:31;;;;;;;4.75;1.20;;;;;;;16.50;53.58;99310.78;20553395;28;20047;-81
2021/05/15 12:38:47;;;;;;;4.77;1.27;;;;;;;16.97;52.95;99304.38;20544868;28;20082;-84
2021/05/15 12:49:05;;;;;;;3.35;0.82;;;;;;;16.17;54.42;99294.53;20599763;28;20086;-84
2021/05/15 12:59:07;;;;;;;3.42;1.00;;;;;;;15.53;56.64;99299.72;20597677;28;20050;-83
2021/05/15 13:09:09;;;;;;;5.13;1.20;;;;;;;16.09;58.47;99283.88;20602559;28;20062;-84
2021/05/15 13:19:12;;;;;;;5.63;1.30;;;;;;;16.12;56.53;99262.47;20600726;28;20039;-82
2021/05/15 13:29:14;;;;;;;3.40;1.10;;;;;;;16.23;55.96;99257.00;20519474;28;20043;-84
2021/05/15 13:39:16;;;;;;;6.63;1.60;;;;;;;16.72;55.54;99251.41;20549081;28;20039;-84
2021/05/15 13:49:20;;;;;;;4.57;1.20;;;;;;;16.20;56.78;99243.25;20556152;28;20720;-83
2021/05/15 13:59:22;;;;;;;3.97;1.30;;;;;;;16.07;57.69;99229.56;20550890;28;20101;-84
2021/05/15 14:09:25;;;;;;;3.95;1.27;;;;;;;16.39;55.72;99213.25;20549286;28;20051;-84
2021/05/15 14:19:26;;;;;;;2.97;1.10;;;;;;;15.96;58.49;99209.47;20573395;28;20114;-84
2021/05/15 14:29:30;;;;;;;3.63;1.17;;;;;;;15.76;59.37;99194.69;20551304;28;20059;-84
2021/05/15 14:39:32;;;;;;;4.07;1.25;;;;;;;16.41;56.45;99190.97;20580810;28;20098;-83
2021/05/15 14:49:34;;;;;;;5.20;1.55;;;;;;;16.27;60.17;99180.94;20595214;28;20055;-84
2021/05/15 14:59:38;;;;;;;5.95;1.55;;;;;;;16.47;59.48;99165.78;20586377;28;20062;-83
2021/05/15 15:09:42;;;;;;;5.50;1.15;;;;;;;16.13;59.72;99162.97;20581122;28;20070;-85
2021/05/15 15:19:46;;;;;;;5.40;1.47;;;;;;;15.82;60.95;99146.63;20546174;28;20046;-84
2021/05/15 15:29:48;;;;;;;4.15;1.70;;;;;;;15.75;61.66;99134.97;20560869;28;20051;-84
2021/05/15 15:39:50;;;;;;;4.53;0.90;;;;;;;15.71;58.76;99139.72;20545286;28;20469;-84
2021/05/15 15:49:52;;;;;;;1.98;0.88;;;;;;;15.31;59.59;99137.38;20560551;28;20054;-84
2021/05/15 15:59:54;;;;;;;6.00;1.38;;;;;;;15.36;59.99;99140.41;20577084;28;20110;-84
2021/05/15 16:10:14;;;;;;;2.03;1.00;;;;;;;15.24;60.06;99140.69;20585717;28;20042;-85
2021/05/15 16:20:18;;;;;;;4.85;1.50;;;;;;;15.09;62.68;99144.75;20597210;28;20208;-83
2021/05/15 16:30:21;;;;;;;4.53;0.93;;;;;;;14.74;64.56;99143.59;20591235;28;20047;-84
2021/05/15 16:40:23;;;;;;;6.47;1.23;;;;;;;15.02;65.01;99136.63;20541017;28;20047;-84
2021/05/15 16:50:25;;;;;;;5.20;1.30;;;;;;;14.97;66.59;99133.56;20553969;28;20110;-83
2021/05/15 17:00:27;;;;;;;4.45;1.55;;;;;;;15.23;66.61;99110.06;20588635;28;20055;-84
2021/05/15 17:10:29;;;;;;;2.72;1.02;;;;;;;14.75;68.83;99107.53;20546143;28;20051;-85
2021/05/15 17:20:30;;;;;;;2.65;1.00;;;;;;;14.15;70.67;99104.22;20584025;28;20398;-84
2021/05/15 17:30:34;;;;;;;1.75;0.60;;;;;;;14.01;71.00;99107.25;20578219;28;20051;-83
2021/05/15 17:40:40;;;;;;;1.35;0.70;;;;;;;13.96;72.69;99119.97;20590887;28;20049;-83
2021/05/15 17:50:45;;;;;;;1.80;0.80;;;;;;;13.71;73.56;99127.38;20604646;28;20054;-84
2021/05/15 18:00:48;;;;;;;2.92;0.95;;;;;;;13.46;74.71;99119.16;20584440;28;20102;-83
2021/05/15 18:10:50;;;;;;;3.67;1.20;;;;;;;13.27;75.85;99127.75;20604379;28;20054;-84
2021/05/15 18:20:53;;;;;;;3.97;1.80;;;;;;;13.17;76.07;99111.94;20616545;28;20047;-84
2021/05/15 18:30:55;;;;;;;3.95;1.20;;;;;;;13.00;76.68;99128.31;20586850;28;20051;-83
2021/05/15 18:40:56;;;;;;;3.65;0.90;;;;;;;12.77;80.54;99155.63;20609361;28;20051;-81
2021/05/15 18:51:01;;;;;;;3.17;1.00;;;;;;;12.09;89.17;99177.03;20612700;28;20402;-81
2021/05/15 19:01:07;;;;;;;3.20;1.10;;;;;;;11.52;95.93;99193.72;20581173;28;20096;-82
2021/05/15 19:11:10;;;;;;;6.38;1.83;;;;;;;11.44;97.60;99196.91;20591969;28;20134;-81
2021/05/15 19:21:13;;;;;;;5.57;1.52;;;;;;;11.18;97.81;99198.06;20613922;28;20557;-81
2021/05/15 19:31:19;;;;;;;8.35;1.70;;;;;;;10.89;97.43;99217.75;20634153;28;20046;-81
2021/05/15 19:41:22;;;;;;;4.90;2.13;;;;;;;10.80;99.82;99229.75;20580864;28;20524;-82
2021/05/15 19:51:23;;;;;;;16.67;7.72;;;;;;;10.53;100.00;99235.22;20611073;28;20181;-83
2021/05/15 20:01:45;;;;;;;9.30;3.75;;;;;;;10.31;100.00;99248.16;20585342;28;20472;-83
2021/05/15 20:11:47;;;;;;;6.40;2.60;;;;;;;10.11;100.00;99249.53;20584294;28;20055;-83
2021/05/15 20:21:49;;;;;;;8.30;1.52;;;;;;;10.18;97.78;99237.75;20594252;28;20101;-82
2021/05/15 20:31:51;;;;;;;4.28;1.77;;;;;;;10.12;100.00;99264.28;20555889;28;20051;-83
2021/05/15 20:41:54;;;;;;;4.40;1.67;;;;;;;10.02;100.00;99276.34;20595619;28;20051;-84
2021/05/15 20:51:56;;;;;;;5.57;1.80;;;;;;;9.78;100.00;99262.38;20586515;28;20047;-82
2021/05/15 21:01:58;;;;;;;6.40;1.85;;;;;;;9.64;100.00;99265.09;20559008;28;20464;-82
2021/05/15 21:12:00;;;;;;;6.13;2.00;;;;;;;9.49;100.00;99261.75;20552335;28;20047;-82
2021/05/15 21:22:02;;;;;;;5.78;1.90;;;;;;;9.48;100.00;99264.47;20579543;28;20051;-82
2021/05/15 21:32:04;;;;;;;5.80;1.50;;;;;;;9.48;100.00;99269.69;20564686;28;20107;-83
2021/05/15 21:42:06;;;;;;;7.82;1.80;;;;;;;9.44;100.00;99284.75;20577558;28;20075;-82
2021/05/15 21:52:09;;;;;;;7.00;1.58;;;;;;;9.36;100.00;99274.78;20611674;28;20050;-82
2021/05/15 22:02:11;;;;;;;6.15;2.05;;;;;;;9.35;100.00;99267.06;20688170;28;20054;-82
2021/05/15 22:12:15;;;;;;;8.03;2.07;;;;;;;9.31;100.00;99258.59;20614060;28;20047;-83
2021/05/15 22:22:17;;;;;;;7.50;1.50;;;;;;;9.37;100.00;99267.78;20676259;28;20129;-83
2021/05/15 22:32:19;;;;;;;3.53;1.30;;;;;;;9.38;100.00;99270.31;20698969;28;20077;-83
2021/05/15 22:42:21;;;;;;;7.40;1.30;;;;;;;9.39;100.00;99272.00;20673777;28;20089;-83
2021/05/15 22:52:23;;;;;;;4.82;1.42;;;;;;;9.32;100.00;99283.78;20684754;28;20092;-83
2021/05/15 23:02:27;;;;;;;5.35;1.45;;;;;;;9.45;100.00;99302.91;20677794;28;20483;-82
2021/05/15 23:12:29;;;;;;;3.07;1.40;;;;;;;9.46;100.00;99295.91;20652380;28;20483;-82
2021/05/15 23:22:32;;;;;;;5.57;1.40;;;;;;;9.48;100.00;99314.94;20694072;28;20492;-82
2021/05/15 23:32:34;;;;;;;7.03;1.85;;;;;;;9.43;100.00;99317.84;20701717;28;20125;-82
2021/05/15 23:42:36;;;;;;;5.90;1.50;;;;;;;9.36;100.00;99311.34;20630573;28;20768;-85
2021/05/15 23:52:38;;;;;;;5.40;1.50;;;;;;;9.57;100.00;99318.69;20652716;28;20170;-84
